createdAt,value
2018-07-10T00:02:23.618Z,2.10
2018-07-10T00:06:06.033Z,2.57
2018-07-10T00:10:48.195Z,2.10
2018-07-10T00:13:16.648Z,2.30
2018-07-10T00:15:45.417Z,2.30
2018-07-10T00:18:13.734Z,2.40
2018-07-10T00:20:41.975Z,2.22
2018-07-10T00:23:10.349Z,2.05
2018-07-10T00:25:39.143Z,1.92
2018-07-10T00:28:07.726Z,2.20
2018-07-10T00:30:36.617Z,4.90
2018-07-10T00:33:04.994Z,3.08
2018-07-10T00:35:33.042Z,2.80
2018-07-10T00:38:06.648Z,2.10
2018-07-10T00:40:35.082Z,2.60
2018-07-10T00:43:07.113Z,2.60
2018-07-10T00:45:35.893Z,2.70
2018-07-10T00:48:04.141Z,4.03
2018-07-10T00:50:32.363Z,2.67
2018-07-10T00:53:01.258Z,2.65
2018-07-10T00:55:30.034Z,2.55
2018-07-10T00:57:58.649Z,2.25
2018-07-10T01:00:28.359Z,2.60
2018-07-10T01:02:57.374Z,2.30
2018-07-10T01:05:26.146Z,2.95
2018-07-10T01:07:55.037Z,2.83
2018-07-10T01:10:23.660Z,2.80
2018-07-10T01:12:52.371Z,2.43
2018-07-10T01:15:21.444Z,2.33
2018-07-10T01:17:50.163Z,2.65
2018-07-10T01:20:19.206Z,2.50
2018-07-10T01:22:48.302Z,2.40
2018-07-10T01:25:17.017Z,2.50
2018-07-10T01:27:45.088Z,2.80
2018-07-10T01:30:13.699Z,2.90
2018-07-10T01:32:42.803Z,2.60
2018-07-10T01:35:11.149Z,2.50
2018-07-10T01:37:40.088Z,2.42
2018-07-10T01:40:08.714Z,2.85
2018-07-10T01:42:37.018Z,2.80
2018-07-10T01:45:05.105Z,2.80
2018-07-10T01:47:33.777Z,2.30
2018-07-10T01:50:02.025Z,2.77
2018-07-10T01:52:30.289Z,3.45
2018-07-10T01:54:58.908Z,2.40
2018-07-10T01:57:27.671Z,2.60
2018-07-10T01:59:56.510Z,2.50
2018-07-10T02:02:25.590Z,2.50
2018-07-10T02:04:54.889Z,2.98
2018-07-10T02:07:24.189Z,3.00
2018-07-10T02:09:52.561Z,3.22
2018-07-10T02:12:20.597Z,2.70
2018-07-10T02:14:48.789Z,3.10
2018-07-10T02:17:17.214Z,3.20
2018-07-10T02:19:45.881Z,2.90
2018-07-10T02:22:14.394Z,2.60
2018-07-10T02:24:42.953Z,2.58
2018-07-10T02:27:11.073Z,3.37
2018-07-10T02:29:40.104Z,2.80
2018-07-10T02:32:08.682Z,2.67
2018-07-10T02:34:37.367Z,2.27
2018-07-10T02:37:05.898Z,2.70
2018-07-10T02:39:34.567Z,2.90
2018-07-10T02:42:02.907Z,2.77
2018-07-10T02:44:31.225Z,2.52
2018-07-10T02:46:59.799Z,2.70
2018-07-10T02:49:28.507Z,2.50
2018-07-10T02:52:00.343Z,3.00
2018-07-10T02:54:30.762Z,2.60
2018-07-10T02:56:59.254Z,3.12
2018-07-10T02:59:31.799Z,3.00
2018-07-10T03:02:01.147Z,3.40
2018-07-10T03:04:29.953Z,3.00
2018-07-10T03:06:58.603Z,2.75
2018-07-10T03:09:26.989Z,3.50
2018-07-10T03:11:55.082Z,4.80
2018-07-10T03:14:23.609Z,3.00
2018-07-10T03:16:52.533Z,3.25
2018-07-10T03:19:21.950Z,3.00
2018-07-10T03:21:50.416Z,2.80
2018-07-10T03:24:18.478Z,2.27
2018-07-10T03:26:47.065Z,2.40
2018-07-10T03:29:15.763Z,2.30
2018-07-10T03:31:44.148Z,2.40
2018-07-10T03:34:12.316Z,2.40
2018-07-10T03:36:40.410Z,2.30
2018-07-10T03:39:08.887Z,2.50
2018-07-10T03:41:37.258Z,2.50
2018-07-10T03:44:05.387Z,2.12
2018-07-10T03:46:34.494Z,2.70
2018-07-10T03:49:03.908Z,2.80
2018-07-10T03:51:32.805Z,2.47
2018-07-10T03:54:01.569Z,2.77
2018-07-10T03:56:30.378Z,2.52
2018-07-10T03:59:00.266Z,2.50
2018-07-10T04:01:32.889Z,2.67
2018-07-10T04:04:01.538Z,2.37
2018-07-10T04:06:30.133Z,2.27
2018-07-10T04:08:59.500Z,3.20
2018-07-10T04:11:27.784Z,2.10
2018-07-10T04:13:55.974Z,2.72
2018-07-10T04:16:24.587Z,3.00
2018-07-10T04:18:53.378Z,3.65
2018-07-10T04:21:23.779Z,5.08
2018-07-10T04:24:12.662Z,4.50
2018-07-10T04:26:43.319Z,5.20
2018-07-10T04:29:15.058Z,6.20
2018-07-10T04:31:48.279Z,4.80
2018-07-10T04:34:16.730Z,4.15
2018-07-10T04:36:45.518Z,4.10
2018-07-10T04:39:13.893Z,3.60
2018-07-10T04:41:43.265Z,3.45
2018-07-10T04:44:13.525Z,2.90
2018-07-10T04:46:43.908Z,3.05
2018-07-10T04:49:47.718Z,2.65
2018-07-10T04:52:18.203Z,2.80
2018-07-10T04:54:48.328Z,3.45
2018-07-10T04:57:17.690Z,2.70
2018-07-10T04:59:46.077Z,3.05
2018-07-10T05:02:14.873Z,2.30
2018-07-10T05:04:43.515Z,2.80
2018-07-10T05:07:12.255Z,3.60
2018-07-10T05:09:41.985Z,2.50
2018-07-10T05:12:10.717Z,2.30
2018-07-10T05:14:41.022Z,3.67
2018-07-10T05:17:09.113Z,2.55
2018-07-10T05:19:37.248Z,3.52
2018-07-10T05:22:05.678Z,2.40
2018-07-10T05:24:33.745Z,2.25
2018-07-10T05:27:02.434Z,2.20
2018-07-10T05:29:31.286Z,2.20
2018-07-10T05:31:59.625Z,2.05
2018-07-10T05:34:27.890Z,2.10
2018-07-10T05:36:56.476Z,2.50
2018-07-10T05:39:25.422Z,2.30
2018-07-10T05:41:54.166Z,2.55
2018-07-10T05:44:23.177Z,1.70
2018-07-10T05:46:51.825Z,1.80
2018-07-10T05:49:19.987Z,2.00
2018-07-10T05:51:50.694Z,2.00
2018-07-10T05:54:19.137Z,1.85
2018-07-10T05:56:47.730Z,2.00
2018-07-10T05:59:15.819Z,1.62
2018-07-10T06:01:44.479Z,2.10
2018-07-10T06:04:13.974Z,2.10
2018-07-10T06:06:42.869Z,1.90
2018-07-10T06:09:11.635Z,1.60
2018-07-10T06:11:40.014Z,1.90
2018-07-10T06:14:08.287Z,1.90
2018-07-10T06:16:38.063Z,2.00
2018-07-10T06:19:06.118Z,1.60
2018-07-10T06:21:40.982Z,1.80
2018-07-10T06:24:10.150Z,1.72
2018-07-10T06:26:39.005Z,1.72
2018-07-10T06:29:08.138Z,1.80
2018-07-10T06:31:43.461Z,1.70
2018-07-10T06:34:11.943Z,2.42
2018-07-10T06:36:44.532Z,1.90
2018-07-10T06:39:15.953Z,1.85
2018-07-10T06:41:46.568Z,1.90
2018-07-10T06:44:15.614Z,1.60
2018-07-10T06:46:45.356Z,1.67
2018-07-10T06:49:18.027Z,1.60
2018-07-10T06:51:46.749Z,1.50
2018-07-10T06:54:15.262Z,1.90
2018-07-10T06:56:45.634Z,1.62
2018-07-10T06:59:14.581Z,1.55
2018-07-10T07:01:42.782Z,1.70
2018-07-10T07:04:11.245Z,1.60
2018-07-10T07:06:39.510Z,2.20
2018-07-10T07:09:07.895Z,1.30
2018-07-10T07:11:36.475Z,1.50
2018-07-10T07:14:04.827Z,1.70
2018-07-10T07:16:33.382Z,1.37
2018-07-10T07:19:01.457Z,1.50
2018-07-10T07:21:29.647Z,1.30
2018-07-10T07:23:57.767Z,1.50
2018-07-10T07:26:26.233Z,2.15
2018-07-10T07:28:54.623Z,2.75
2018-07-10T07:31:23.555Z,1.50
2018-07-10T07:33:51.900Z,2.30
2018-07-10T07:36:20.262Z,2.22
2018-07-10T07:38:49.006Z,2.30
2018-07-10T07:41:17.078Z,2.60
2018-07-10T07:43:45.341Z,3.75
2018-07-10T07:46:13.449Z,2.00
2018-07-10T07:48:41.849Z,1.40
2018-07-10T07:51:09.999Z,1.95
2018-07-10T07:53:38.422Z,1.70
2018-07-10T07:56:06.565Z,2.60
2018-07-10T07:58:35.232Z,1.40
2018-07-10T08:01:03.611Z,1.52
2018-07-10T08:03:32.031Z,1.62
2018-07-10T08:06:00.382Z,1.60
2018-07-10T08:08:28.537Z,1.45
2018-07-10T08:10:56.738Z,1.10
2018-07-10T08:13:25.143Z,1.42
2018-07-10T08:15:53.927Z,1.40
2018-07-10T08:18:22.290Z,1.10
2018-07-10T08:20:50.602Z,1.50
2018-07-10T08:23:18.906Z,1.22
2018-07-10T08:25:47.845Z,1.10
2018-07-10T08:28:16.533Z,1.15
2018-07-10T08:30:45.275Z,1.30
2018-07-10T08:33:13.726Z,1.45
2018-07-10T08:35:42.070Z,1.40
2018-07-10T08:38:10.210Z,1.10
2018-07-10T08:40:38.339Z,1.52
2018-07-10T08:43:06.857Z,1.35
2018-07-10T08:45:35.606Z,1.40
2018-07-10T08:48:04.083Z,1.50
2018-07-10T08:50:32.446Z,1.30
2018-07-10T08:53:01.561Z,1.50
2018-07-10T08:55:29.723Z,1.20
2018-07-10T08:57:58.303Z,6.72
2018-07-10T09:00:26.437Z,3.62
2018-07-10T09:02:54.855Z,1.20
2018-07-10T09:05:23.269Z,1.00
2018-07-10T09:07:52.184Z,1.12
2018-07-10T09:10:20.339Z,1.40
2018-07-10T09:12:48.590Z,1.27
2018-07-10T09:15:16.996Z,1.40
2018-07-10T09:17:45.175Z,0.90
2018-07-10T09:20:17.204Z,1.10
2018-07-10T09:22:45.587Z,1.10
2018-07-10T09:25:13.955Z,1.10
2018-07-10T09:27:42.359Z,1.40
2018-07-10T09:30:11.029Z,1.10
2018-07-10T09:32:44.966Z,1.07
2018-07-10T09:35:13.182Z,1.27
2018-07-10T09:37:45.068Z,1.20
2018-07-10T09:40:14.099Z,1.30
2018-07-10T09:42:45.139Z,1.00
2018-07-10T09:45:13.711Z,1.10
2018-07-10T09:47:41.943Z,1.17
2018-07-10T09:50:10.633Z,1.50
2018-07-10T09:52:39.253Z,1.67
2018-07-10T09:55:07.419Z,1.60
2018-07-10T09:57:35.673Z,1.65
2018-07-10T10:00:04.541Z,1.72
2018-07-10T10:02:34.458Z,1.20
2018-07-10T10:05:04.682Z,1.10
2018-07-10T10:07:33.338Z,1.00
2018-07-10T10:10:02.410Z,0.90
2018-07-10T10:12:31.403Z,1.00
2018-07-10T10:15:00.204Z,1.10
2018-07-10T10:17:29.299Z,1.15
2018-07-10T10:19:58.687Z,1.10
2018-07-10T10:22:27.887Z,1.10
2018-07-10T10:24:56.130Z,1.10
2018-07-10T10:27:26.655Z,1.10
2018-07-10T10:29:55.487Z,1.50
2018-07-10T10:32:24.002Z,1.25
2018-07-10T10:34:52.401Z,2.05
2018-07-10T10:37:20.818Z,6.40
2018-07-10T10:39:49.911Z,4.90
2018-07-10T10:42:19.017Z,4.20
2018-07-10T10:44:49.146Z,2.00
2018-07-10T10:47:17.515Z,1.60
2018-07-10T10:49:46.415Z,1.80
2018-07-10T10:52:14.773Z,1.75
2018-07-10T10:54:42.805Z,1.92
2018-07-10T10:57:11.363Z,1.90
2018-07-10T10:59:39.797Z,1.62
2018-07-10T11:02:08.298Z,1.60
2018-07-10T11:04:36.885Z,1.50
2018-07-10T11:07:06.891Z,1.90
2018-07-10T11:09:35.283Z,1.60
2018-07-10T11:12:03.530Z,1.60
2018-07-10T11:14:32.297Z,1.30
2018-07-10T11:17:01.249Z,1.50
2018-07-10T11:19:31.821Z,1.40
2018-07-10T11:22:02.648Z,1.40
2018-07-10T11:24:36.747Z,1.20
2018-07-10T11:27:05.107Z,8.75
2018-07-10T11:29:33.293Z,7.00
2018-07-10T11:32:02.099Z,2.25
2018-07-10T11:34:30.314Z,1.77
2018-07-10T11:36:59.025Z,1.82
2018-07-10T11:39:27.592Z,1.50
2018-07-10T11:41:56.098Z,1.62
2018-07-10T11:44:24.474Z,1.82
2018-07-10T11:46:53.058Z,1.77
2018-07-10T11:49:21.845Z,1.60
2018-07-10T11:51:50.456Z,1.40
2018-07-10T11:54:18.855Z,1.43
2018-07-10T11:56:47.545Z,1.40
2018-07-10T11:59:15.774Z,1.50
2018-07-10T12:01:44.890Z,1.50
2018-07-10T12:04:12.958Z,1.30
2018-07-10T12:06:47.726Z,1.40
2018-07-10T12:09:16.142Z,1.30
2018-07-10T12:11:45.043Z,1.20
2018-07-10T12:14:13.609Z,2.85
2018-07-10T12:16:42.110Z,1.65
2018-07-10T12:19:10.803Z,1.50
2018-07-10T12:21:39.058Z,1.12
2018-07-10T12:24:07.658Z,1.80
2018-07-10T12:26:36.335Z,1.30
2018-07-10T12:29:04.382Z,1.60
2018-07-10T12:31:32.774Z,1.20
2018-07-10T12:34:01.125Z,1.92
2018-07-10T12:36:29.216Z,2.10
2018-07-10T12:38:57.513Z,1.92
2018-07-10T12:41:25.633Z,1.70
2018-07-10T12:43:53.981Z,1.20
2018-07-10T12:46:22.069Z,1.45
2018-07-10T12:48:50.676Z,1.30
2018-07-10T12:51:18.746Z,1.30
2018-07-10T12:53:46.886Z,1.20
2018-07-10T12:56:15.051Z,1.30
2018-07-10T12:58:43.346Z,1.60
2018-07-10T13:01:11.934Z,1.50
2018-07-10T13:03:40.466Z,1.50
2018-07-10T13:06:09.049Z,1.50
2018-07-10T13:08:37.188Z,1.50
2018-07-10T13:11:05.374Z,1.30
2018-07-10T13:13:33.750Z,1.30
2018-07-10T13:16:02.618Z,1.70
2018-07-10T13:18:32.462Z,1.50
2018-07-10T13:21:00.850Z,1.50
2018-07-10T13:23:29.267Z,1.30
2018-07-10T13:25:57.747Z,1.20
2018-07-10T13:28:26.087Z,1.30
2018-07-10T13:30:54.558Z,1.17
2018-07-10T13:33:22.998Z,1.40
2018-07-10T13:35:51.213Z,1.10
2018-07-10T13:38:20.109Z,1.40
2018-07-10T13:40:48.434Z,1.40
2018-07-10T13:43:16.874Z,1.50
2018-07-10T13:45:45.707Z,1.10
2018-07-10T13:48:14.488Z,1.40
2018-07-10T13:50:43.087Z,1.30
2018-07-10T13:53:11.458Z,1.20
2018-07-10T13:55:40.005Z,1.10
2018-07-10T13:58:13.009Z,1.30
2018-07-10T14:00:43.258Z,1.10
2018-07-10T14:03:12.129Z,1.20
2018-07-10T14:05:40.651Z,1.40
2018-07-10T14:08:08.795Z,1.27
2018-07-10T14:10:36.965Z,1.12
2018-07-10T14:13:06.049Z,1.40
2018-07-10T14:15:34.455Z,1.10
2018-07-10T14:18:02.585Z,1.10
2018-07-10T14:20:39.609Z,1.30
2018-07-10T14:23:07.718Z,1.20
2018-07-10T14:25:35.822Z,1.52
2018-07-10T14:28:04.095Z,1.92
2018-07-10T14:30:32.470Z,1.40
2018-07-10T14:33:00.821Z,1.40
2018-07-10T14:35:29.356Z,1.30
2018-07-10T14:37:59.748Z,2.00
2018-07-10T14:40:28.139Z,1.72
2018-07-10T14:42:56.409Z,2.45
2018-07-10T14:45:24.799Z,1.52
2018-07-10T14:47:53.681Z,1.40
2018-07-10T14:50:22.553Z,2.08
2018-07-10T14:52:50.918Z,1.53
2018-07-10T14:55:19.082Z,1.40
2018-07-10T14:57:47.242Z,1.30
2018-07-10T15:00:15.645Z,1.30
2018-07-10T15:02:43.923Z,1.50
2018-07-10T15:05:12.807Z,1.17
2018-07-10T15:07:41.479Z,1.40
2018-07-10T15:10:10.015Z,1.20
2018-07-10T15:12:38.342Z,1.60
2018-07-10T15:15:07.220Z,1.80
2018-07-10T15:18:40.850Z,1.50
2018-07-10T15:21:09.417Z,1.27
2018-07-10T15:23:37.585Z,1.70
2018-07-10T15:26:06.798Z,1.50
2018-07-10T15:28:35.495Z,1.50
2018-07-10T15:31:03.798Z,1.40
2018-07-10T15:33:32.264Z,1.60
2018-07-10T15:36:00.509Z,1.40
2018-07-10T15:38:28.711Z,2.00
2018-07-10T15:40:57.476Z,3.00
2018-07-10T15:43:26.175Z,2.22
2018-07-10T15:45:54.580Z,1.90
2018-07-10T15:48:22.801Z,1.23
2018-07-10T15:50:50.898Z,1.40
2018-07-10T15:53:18.935Z,1.60
2018-07-10T15:55:47.775Z,1.90
2018-07-10T15:58:16.551Z,1.83
2018-07-10T16:00:45.670Z,4.28
2018-07-10T16:03:15.100Z,2.00
2018-07-10T16:05:44.230Z,2.27
2018-07-10T16:08:16.141Z,2.40
2018-07-10T16:10:50.099Z,2.10
2018-07-10T16:13:19.190Z,2.00
2018-07-10T16:15:49.633Z,1.75
2018-07-10T16:18:19.461Z,1.47
2018-07-10T16:20:47.614Z,1.80
2018-07-10T16:23:16.007Z,1.50
2018-07-10T16:25:46.795Z,1.60
2018-07-10T16:28:16.960Z,1.50
2018-07-10T16:30:45.770Z,1.50
2018-07-10T16:33:15.517Z,1.80
2018-07-10T16:35:44.079Z,3.97
2018-07-10T16:38:12.211Z,2.40
2018-07-10T16:40:40.905Z,3.07
2018-07-10T16:43:14.548Z,2.92
2018-07-10T16:45:42.906Z,1.87
2018-07-10T16:48:23.698Z,1.83
2018-07-10T16:50:58.981Z,1.65
2018-07-10T16:53:29.104Z,1.60
2018-07-10T16:55:57.383Z,1.62
2018-07-10T16:58:26.295Z,1.30
2018-07-10T17:00:54.972Z,1.60
2018-07-10T17:03:23.518Z,1.60
2018-07-10T17:05:52.137Z,1.72
2018-07-10T17:08:20.519Z,1.40
2018-07-10T17:10:49.206Z,1.43
2018-07-10T17:13:17.329Z,1.37
2018-07-10T17:15:45.780Z,1.57
2018-07-10T17:23:57.219Z,1.50
2018-07-10T17:26:25.868Z,3.72
2018-07-10T17:28:54.186Z,2.20
2018-07-10T17:31:22.294Z,1.90
2018-07-10T17:33:50.704Z,1.90
2018-07-10T17:36:19.068Z,1.80
2018-07-10T17:38:48.375Z,1.87
2018-07-10T17:41:16.546Z,1.62
2018-07-10T17:43:45.143Z,1.77
2018-07-10T17:46:13.316Z,1.57
2018-07-10T17:48:41.493Z,1.90
2018-07-10T17:51:09.973Z,1.80
2018-07-10T17:53:38.462Z,2.10
2018-07-10T17:56:07.048Z,1.90
2018-07-10T17:58:35.295Z,1.90
2018-07-10T18:01:03.988Z,2.00
2018-07-10T18:03:32.279Z,1.87
2018-07-10T18:06:00.494Z,1.72
2018-07-10T18:08:28.712Z,1.90
2018-07-10T18:10:57.319Z,1.90
2018-07-10T18:13:25.718Z,1.72
2018-07-10T18:15:54.378Z,1.70
2018-07-10T18:18:22.474Z,1.30
2018-07-10T18:20:50.668Z,1.60
2018-07-10T18:23:19.293Z,1.80
2018-07-10T18:25:47.770Z,2.40
2018-07-10T18:28:16.159Z,2.60
2018-07-10T18:30:44.438Z,2.65
2018-07-10T18:33:12.839Z,2.50
2018-07-10T18:35:40.938Z,1.90
2018-07-10T18:38:09.291Z,1.90
2018-07-10T18:40:37.577Z,1.82
2018-07-10T18:43:06.045Z,1.80
2018-07-10T18:45:34.214Z,2.10
2018-07-10T18:48:02.345Z,2.40
2018-07-10T18:50:31.123Z,1.90
2018-07-10T18:53:00.946Z,2.10
2018-07-10T18:55:29.561Z,2.50
2018-07-10T18:58:01.043Z,2.02
2018-07-10T19:00:32.302Z,2.13
2018-07-10T19:03:05.650Z,2.40
2018-07-10T19:05:35.006Z,2.10
2018-07-10T19:08:03.345Z,2.20
2018-07-10T19:10:31.520Z,2.10
2018-07-10T19:12:59.881Z,2.30
2018-07-10T19:15:28.223Z,2.12
2018-07-10T19:17:56.665Z,2.10
2018-07-10T19:20:25.108Z,1.90
2018-07-10T19:22:55.238Z,2.50
2018-07-10T19:25:23.983Z,2.75
2018-07-10T19:27:53.126Z,2.80
2018-07-10T19:30:21.630Z,2.10
2018-07-10T19:32:49.797Z,2.87
2018-07-10T19:35:18.133Z,2.73
2018-07-10T19:37:46.359Z,2.20
2018-07-10T19:40:14.542Z,2.63
2018-07-10T19:42:43.139Z,2.10
2018-07-10T19:45:11.517Z,1.90
2018-07-10T19:47:39.658Z,2.25
2018-07-10T19:50:12.868Z,2.00
2018-07-10T19:52:42.368Z,2.65
2018-07-10T19:55:11.378Z,2.70
2018-07-10T19:57:43.126Z,1.90
2018-07-10T20:00:12.535Z,2.10
2018-07-10T20:02:40.896Z,2.27
2018-07-10T20:05:11.155Z,2.40
2018-07-10T20:07:41.502Z,3.67
2018-07-10T20:10:17.961Z,2.02
2018-07-10T20:12:58.383Z,2.10
2018-07-10T20:15:31.989Z,2.10
2018-07-10T20:18:02.411Z,1.75
2018-07-10T20:20:32.141Z,1.63
2018-07-10T20:23:07.809Z,2.00
2018-07-10T20:25:43.301Z,1.87
2018-07-10T20:28:15.467Z,1.92
2018-07-10T20:30:49.186Z,2.35
2018-07-10T20:33:28.730Z,2.10
2018-07-10T20:36:00.227Z,1.85
2018-07-10T20:38:28.761Z,2.08
2018-07-10T20:40:56.887Z,1.87
2018-07-10T20:43:25.343Z,2.58
2018-07-10T20:45:55.789Z,2.20
2018-07-10T20:48:57.211Z,2.00
2018-07-10T20:51:28.466Z,1.62
2018-07-10T20:54:14.957Z,1.62
2018-07-10T20:57:03.409Z,1.80
2018-07-10T20:59:39.579Z,2.20
2018-07-10T21:02:09.734Z,1.90
2018-07-10T21:05:12.787Z,1.92
2018-07-10T21:08:00.722Z,2.07
2018-07-10T21:10:30.190Z,2.20
2018-07-10T21:13:07.074Z,2.40
2018-07-10T21:15:58.222Z,2.10
2018-07-10T21:18:31.973Z,1.90
2018-07-10T21:21:03.634Z,1.90
2018-07-10T21:23:38.954Z,1.92
2018-07-10T21:26:16.374Z,1.92
2018-07-10T21:28:47.126Z,1.60
2018-07-10T21:31:20.817Z,2.00
2018-07-10T21:33:52.484Z,1.90
2018-07-10T21:36:23.919Z,2.10
2018-07-10T21:39:12.813Z,2.00
2018-07-10T21:41:46.817Z,1.95
2018-07-10T21:44:19.193Z,1.90
2018-07-10T21:46:51.482Z,1.80
2018-07-10T21:49:25.290Z,1.80
2018-07-10T21:51:53.728Z,1.70
2018-07-10T21:54:22.551Z,1.30
2018-07-10T21:56:50.943Z,2.02
2018-07-10T21:59:20.430Z,1.90
2018-07-10T22:01:51.593Z,1.80
2018-07-10T22:04:21.981Z,1.70
2018-07-10T22:06:51.919Z,2.10
2018-07-10T22:09:21.430Z,1.60
2018-07-10T22:11:49.889Z,1.50
2018-07-10T22:14:18.593Z,1.80
2018-07-10T22:16:46.887Z,1.70
2018-07-10T22:19:19.311Z,2.10
2018-07-10T22:21:48.022Z,1.67
2018-07-10T22:24:16.376Z,1.90
2018-07-10T22:26:45.178Z,1.80
2018-07-10T22:29:13.438Z,1.80
2018-07-10T22:31:47.177Z,1.90
2018-07-10T22:34:16.150Z,1.50
2018-07-10T22:36:44.414Z,2.00
2018-07-10T22:39:12.676Z,1.80
2018-07-10T22:41:40.910Z,2.20
2018-07-10T22:44:09.375Z,2.05
2018-07-10T22:46:39.877Z,1.80
2018-07-10T22:49:09.822Z,2.00
2018-07-10T22:51:38.011Z,2.13
2018-07-10T22:54:06.956Z,2.10
2018-07-10T22:56:35.490Z,2.75
2018-07-10T22:59:04.194Z,2.20
2018-07-10T23:01:33.471Z,2.60
2018-07-10T23:04:01.838Z,2.30
2018-07-10T23:06:30.248Z,2.20
2018-07-10T23:08:58.602Z,2.00
2018-07-10T23:11:26.874Z,2.20
2018-07-10T23:13:55.362Z,2.05
2018-07-10T23:16:23.637Z,2.40
2018-07-10T23:18:52.188Z,2.30
2018-07-10T23:21:20.701Z,2.50
2018-07-10T23:23:50.001Z,2.70
2018-07-10T23:26:19.505Z,2.72
2018-07-10T23:28:50.613Z,2.72
2018-07-10T23:31:19.027Z,2.60
2018-07-10T23:33:48.718Z,2.40
2018-07-10T23:36:17.327Z,2.50
2018-07-10T23:38:54.210Z,2.47
2018-07-10T23:41:30.487Z,3.00
2018-07-10T23:43:58.948Z,2.55
2018-07-10T23:46:30.979Z,2.45
2018-07-10T23:49:00.617Z,2.60
2018-07-10T23:51:28.963Z,2.40
2018-07-10T23:53:57.306Z,2.60
2018-07-10T23:56:25.163Z,2.55
2018-07-10T23:58:53.729Z,2.40
